Time;durP1;ratioP1;P1;durP2;ratioP2;P2;SDS_P1;SDS_P2;PMS_P1;PMS_P2;Temp;Humidity;BMP_temperature;BMP_pressure;BME280_temperature;BME280_humidity;BME280_pressure;Samples;Min_cycle;Max_cycle;Signal;HPM_P1;HPM_P2
2022/05/24 00:02:52;;;;;;;5.60;4.32;;;;;;;10.28;100.00;98896.50;5081780;28;20190;-91
2022/05/24 00:05:37;;;;;;;5.05;4.22;;;;;;;10.23;100.00;98894.94;5070904;28;20028;-92
2022/05/24 00:08:22;;;;;;;6.72;3.78;;;;;;;10.10;100.00;98885.84;5077910;28;20051;-92
2022/05/24 00:11:07;;;;;;;4.80;3.28;;;;;;;10.19;100.00;98899.44;5090678;28;20110;-92
2022/05/24 00:13:51;;;;;;;5.90;3.30;;;;;;;10.04;100.00;98881.69;5080124;28;20089;-91
2022/05/24 00:16:36;;;;;;;5.63;3.28;;;;;;;9.91;100.00;98877.81;5077083;28;20036;-92
2022/05/24 00:19:20;;;;;;;7.40;3.90;;;;;;;9.96;100.00;98875.91;5072683;28;20082;-92
2022/05/24 00:22:05;;;;;;;5.38;3.15;;;;;;;9.98;100.00;98864.47;5069772;28;20036;-92
2022/05/24 00:24:50;;;;;;;5.57;3.25;;;;;;;9.83;100.00;98865.03;5071636;28;20044;-92
2022/05/24 00:27:34;;;;;;;3.72;2.75;;;;;;;9.87;100.00;98865.78;5087454;28;20123;-92
2022/05/24 00:30:20;;;;;;;3.00;1.88;;;;;;;9.97;100.00;98883.66;5076359;28;20043;-92
2022/05/24 00:33:05;;;;;;;4.28;2.63;;;;;;;10.07;100.00;98869.38;5079066;28;20071;-92
2022/05/24 00:35:51;;;;;;;4.75;3.10;;;;;;;9.98;100.00;98858.41;5085990;28;20039;-91
2022/05/24 00:38:39;;;;;;;4.65;1.80;;;;;;;10.07;100.00;98855.41;5084399;28;20801;-91
2022/05/24 00:41:31;;;;;;;4.43;2.83;;;;;;;10.09;100.00;98869.28;5070684;28;20104;-92
2022/05/24 00:44:32;;;;;;;4.05;2.70;;;;;;;10.21;100.00;98849.66;5072808;28;20393;-92
2022/05/24 00:47:30;;;;;;;3.75;2.63;;;;;;;10.07;100.00;98851.06;5086125;28;20032;-92
2022/05/24 00:50:21;;;;;;;3.85;2.40;;;;;;;10.06;100.00;98848.47;5071584;28;20066;-91
2022/05/24 00:53:15;;;;;;;5.10;2.42;;;;;;;10.12;100.00;98845.63;5072638;28;20044;-92
2022/05/24 00:56:11;;;;;;;4.40;2.67;;;;;;;10.30;100.00;98849.31;5069499;28;20043;-92
2022/05/24 00:59:04;;;;;;;2.97;1.98;;;;;;;10.37;100.00;98848.19;5073532;28;20498;-92
2022/05/24 01:01:49;;;;;;;5.65;2.80;;;;;;;10.17;100.00;98829.75;5084129;28;20032;-92
2022/05/24 01:04:33;;;;;;;3.88;2.60;;;;;;;10.21;100.00;98823.50;5070190;28;20040;-91
2022/05/24 01:07:17;;;;;;;5.32;2.95;;;;;;;10.20;100.00;98804.31;5088727;28;20394;-91
2022/05/24 01:10:07;;;;;;;3.50;2.50;;;;;;;10.20;100.00;98816.53;5075168;28;20406;-90
2022/05/24 01:13:10;;;;;;;4.50;2.60;;;;;;;10.23;100.00;98813.81;5084307;28;20048;-90
2022/05/24 01:15:54;;;;;;;8.82;2.60;;;;;;;10.22;100.00;98796.41;5071453;28;20036;-90
2022/05/24 01:18:39;;;;;;;3.78;2.67;;;;;;;10.36;100.00;98793.25;5085014;28;20032;-90
2022/05/24 01:21:24;;;;;;;3.05;2.55;;;;;;;10.42;100.00;98803.50;5084411;28;20482;-90
2022/05/24 01:24:20;;;;;;;3.88;2.97;;;;;;;10.31;100.00;98782.16;5071915;28;20483;-90
2022/05/24 01:27:05;;;;;;;5.85;2.83;;;;;;;10.37;100.00;98780.13;5086351;28;20035;-91
2022/05/24 01:29:50;;;;;;;3.50;2.53;;;;;;;10.54;100.00;98779.44;5073686;28;20040;-90
2022/05/24 01:38:52;;;;;;;2.70;2.10;;;;;;;10.34;100.00;98766.31;5081225;28;20032;-90
2022/05/24 01:41:42;;;;;;;2.92;1.70;;;;;;;10.52;100.00;98781.25;5070187;28;20032;-90
2022/05/24 01:44:42;;;;;;;6.00;2.20;;;;;;;10.35;100.00;98768.84;5069091;28;20032;-90
2022/05/24 01:47:28;;;;;;;4.10;2.00;;;;;;;10.21;100.00;98761.53;5087424;28;20111;-90
2022/05/24 01:50:17;;;;;;;3.15;2.25;;;;;;;10.37;100.00;98763.59;5074115;28;20549;-90
2022/05/24 01:53:14;;;;;;;5.05;2.38;;;;;;;10.31;100.00;98758.59;5071321;28;20044;-91
2022/05/24 01:56:00;;;;;;;3.45;2.20;;;;;;;10.23;100.00;98744.00;5085183;28;20044;-91
2022/05/24 01:58:50;;;;;;;2.35;1.73;;;;;;;10.27;100.00;98765.72;5072194;28;20741;-91
2022/05/24 02:01:47;;;;;;;5.68;3.00;;;;;;;10.02;100.00;98735.25;5075905;28;20036;-90
2022/05/24 02:04:33;;;;;;;3.95;2.80;;;;;;;10.25;100.00;98743.94;5081941;28;20044;-90
2022/05/24 02:07:22;;;;;;;3.15;1.95;;;;;;;10.29;100.00;98733.31;5085950;28;20125;-91
2022/05/24 02:10:07;;;;;;;5.18;3.05;;;;;;;10.24;100.00;98737.03;5068900;28;20040;-91
2022/05/24 02:12:57;;;;;;;4.60;3.28;;;;;;;10.23;100.00;98740.53;5086897;28;20405;-91
2022/05/24 02:15:46;;;;;;;7.57;2.92;;;;;;;10.13;100.00;98715.66;5074285;28;20928;-91
2022/05/24 02:18:31;;;;;;;2.78;2.30;;;;;;;10.16;100.00;98702.44;5072966;28;20043;-89
2022/05/24 02:21:16;;;;;;;4.82;3.13;;;;;;;10.04;100.00;98707.28;5085116;28;20063;-89
2022/05/24 02:24:01;;;;;;;4.65;2.85;;;;;;;10.15;100.00;98719.06;5070329;28;20118;-89
2022/05/24 02:26:46;;;;;;;6.28;3.78;;;;;;;10.20;100.00;98727.56;5081838;28;20508;-89
2022/05/24 02:29:31;;;;;;;5.18;3.33;;;;;;;10.12;100.00;98714.81;5072807;28;20036;-90
2022/05/24 02:32:16;;;;;;;3.70;3.03;;;;;;;10.24;100.00;98729.16;5070193;28;20060;-89
2022/05/24 02:35:01;;;;;;;3.80;2.40;;;;;;;10.18;100.00;98706.72;5090346;28;20115;-89
2022/05/24 02:37:47;;;;;;;5.05;2.28;;;;;;;10.23;100.00;98719.59;5075479;28;20036;-88
2022/05/24 02:43:36;;;;;;;2.85;2.40;;;;;;;10.44;100.00;98708.28;5090907;28;20035;-88
2022/05/24 02:46:20;;;;;;;3.42;2.13;;;;;;;10.27;100.00;98695.06;5090860;28;20040;-88
2022/05/24 02:49:07;;;;;;;3.17;1.83;;;;;;;10.36;100.00;98688.56;5074712;28;20035;-89
2022/05/24 02:51:52;;;;;;;2.45;1.67;;;;;;;10.49;100.00;98698.44;5072661;28;20042;-88
2022/05/24 02:54:36;;;;;;;3.88;1.75;;;;;;;10.54;100.00;98700.91;5086779;28;20064;-89
2022/05/24 02:57:21;;;;;;;3.15;1.70;;;;;;;10.64;100.00;98715.28;5081511;28;20046;-89
2022/05/24 03:00:11;;;;;;;1.98;1.60;;;;;;;10.82;100.00;98713.66;5086409;28;20031;-89
2022/05/24 03:02:56;;;;;;;1.52;0.90;;;;;;;10.77;100.00;98706.00;5075999;28;20086;-89
2022/05/24 03:05:40;;;;;;;3.70;1.23;;;;;;;10.89;100.00;98712.47;5072164;28;20047;-89
2022/05/24 03:11:28;;;;;;;3.97;2.53;;;;;;;11.02;100.00;98722.41;5089236;28;20075;-89
2022/05/24 03:14:15;;;;;;;2.15;1.40;;;;;;;11.01;100.00;98711.06;5075841;28;20406;-89
2022/05/24 03:16:59;;;;;;;3.67;1.58;;;;;;;11.03;100.00;98717.09;5074535;28;20047;-89
2022/05/24 03:19:44;;;;;;;3.30;2.15;;;;;;;11.14;100.00;98737.59;5088501;28;20036;-89
2022/05/24 03:22:29;;;;;;;3.70;2.65;;;;;;;11.24;100.00;98728.38;5076517;28;20077;-89
2022/05/24 03:25:14;;;;;;;2.47;1.63;;;;;;;11.15;100.00;98713.09;5086370;28;20088;-88
2022/05/24 03:27:59;;;;;;;3.15;1.05;;;;;;;11.31;100.00;98742.06;5069619;28;20032;-88
2022/05/24 03:30:44;;;;;;;2.17;1.25;;;;;;;11.41;100.00;98740.75;5081625;28;20032;-89
2022/05/24 03:33:28;;;;;;;2.28;1.40;;;;;;;11.29;100.00;98728.19;5083839;28;20032;-88
2022/05/24 03:36:12;;;;;;;2.10;1.60;;;;;;;11.38;100.00;98712.06;5074374;28;20359;-89
2022/05/24 03:38:57;;;;;;;4.57;1.50;;;;;;;11.45;100.00;98722.19;5072680;28;20060;-91
2022/05/24 03:41:44;;;;;;;2.75;1.80;;;;;;;11.42;100.00;98727.56;5074276;28;20394;-91
2022/05/24 03:44:28;;;;;;;2.65;1.60;;;;;;;11.51;100.00;98714.97;5085520;28;20039;-91
2022/05/24 03:47:15;;;;;;;2.22;1.20;;;;;;;11.52;100.00;98730.63;5090720;28;20036;-91
2022/05/24 03:49:59;;;;;;;2.88;1.70;;;;;;;11.45;100.00;98723.97;5091622;28;20039;-89
2022/05/24 03:52:43;;;;;;;1.92;1.33;;;;;;;11.62;100.00;98720.56;5090968;28;20486;-90
2022/05/24 03:55:28;;;;;;;2.38;1.13;;;;;;;11.51;100.00;98709.72;5072905;28;20036;-90
2022/05/24 03:58:17;;;;;;;2.92;1.58;;;;;;;11.69;100.00;98728.06;5074757;28;20093;-90
2022/05/24 04:01:02;;;;;;;5.18;1.80;;;;;;;11.49;100.00;98715.03;5077435;28;20036;-90
2022/05/24 04:03:46;;;;;;;2.53;1.48;;;;;;;11.54;100.00;98727.94;5072715;28;20096;-90
2022/05/24 04:06:31;;;;;;;1.60;1.50;;;;;;;11.57;100.00;98715.53;5073162;28;20470;-91
2022/05/24 04:09:16;;;;;;;1.95;1.40;;;;;;;11.68;100.00;98721.13;5101153;28;20048;-91
2022/05/24 04:12:00;;;;;;;1.95;1.42;;;;;;;11.60;100.00;98720.66;5084495;28;20035;-91
2022/05/24 04:14:46;;;;;;;2.53;1.98;;;;;;;11.32;100.00;98712.34;5085646;28;20560;-90
2022/05/24 04:17:30;;;;;;;2.80;1.88;;;;;;;11.49;100.00;98719.44;5065257;28;20039;-91
2022/05/24 04:20:15;;;;;;;1.85;1.60;;;;;;;11.63;100.00;98725.75;5085801;28;20096;-91
2022/05/24 04:23:02;;;;;;;3.28;2.10;;;;;;;11.53;100.00;98721.81;5087724;28;20032;-91
2022/05/24 04:25:48;;;;;;;2.60;2.10;;;;;;;11.62;100.00;98738.91;5086339;28;20047;-91
2022/05/24 04:28:34;;;;;;;2.40;2.10;;;;;;;11.50;100.00;98715.88;5078148;28;20036;-90
2022/05/24 04:31:18;;;;;;;3.03;2.30;;;;;;;11.57;100.00;98712.91;5076976;28;20548;-91
2022/05/24 04:34:02;;;;;;;4.88;1.98;;;;;;;11.55;100.00;98714.75;5078847;28;20040;-90
2022/05/24 04:36:47;;;;;;;2.90;1.45;;;;;;;11.78;100.00;98713.66;5075094;28;20031;-90
2022/05/24 04:39:32;;;;;;;2.60;1.83;;;;;;;11.77;100.00;98719.84;5071682;28;20032;-91
2022/05/24 04:42:19;;;;;;;2.15;1.38;;;;;;;11.84;100.00;98723.03;5071397;28;20039;-91
2022/05/24 04:45:07;;;;;;;2.45;1.63;;;;;;;11.87;100.00;98721.16;5055679;28;20619;-91
2022/05/24 04:47:52;;;;;;;1.92;1.00;;;;;;;12.06;100.00;98730.78;5069188;28;20040;-92
2022/05/24 04:50:37;;;;;;;3.25;1.70;;;;;;;11.97;100.00;98704.97;5071941;28;20043;-92
2022/05/24 04:53:23;;;;;;;7.93;1.55;;;;;;;12.18;100.00;98724.91;5087932;28;20097;-92
2022/05/24 04:56:09;;;;;;;2.95;1.45;;;;;;;12.09;100.00;98712.22;5068970;28;20036;-91
2022/05/24 04:58:53;;;;;;;3.28;1.52;;;;;;;12.06;100.00;98710.63;5070543;28;20110;-92
2022/05/24 05:01:38;;;;;;;3.72;1.20;;;;;;;12.33;100.00;98703.16;5072827;28;21313;-93
2022/05/24 05:04:24;;;;;;;3.33;1.67;;;;;;;12.43;100.00;98690.44;5070970;28;20039;-92
2022/05/24 05:07:08;;;;;;;1.55;1.30;;;;;;;12.63;100.00;98702.53;5085244;28;20039;-92
2022/05/24 05:09:52;;;;;;;6.40;1.40;;;;;;;12.78;100.00;98706.19;5071195;28;20032;-92
2022/05/24 05:12:37;;;;;;;2.80;1.20;;;;;;;12.84;100.00;98709.34;5074060;28;20043;-93
2022/05/24 05:15:22;;;;;;;2.65;1.70;;;;;;;12.89;100.00;98690.69;5067946;28;20032;-93
2022/05/24 05:18:12;;;;;;;2.53;1.63;;;;;;;13.06;100.00;98702.94;5072770;28;20781;-93
2022/05/24 05:20:58;;;;;;;3.05;1.70;;;;;;;13.46;100.00;98703.50;5070437;28;20113;-92
2022/05/24 05:23:42;;;;;;;2.22;1.50;;;;;;;13.53;100.00;98697.81;5055671;28;20118;-91
2022/05/24 05:26:28;;;;;;;2.30;1.50;;;;;;;13.57;100.00;98701.97;5066184;28;20032;-91
2022/05/24 05:29:12;;;;;;;5.55;1.90;;;;;;;13.51;100.00;98712.81;5071733;28;20501;-92
2022/05/24 05:31:56;;;;;;;3.08;1.40;;;;;;;13.48;100.00;98713.00;5076099;28;20662;-92
2022/05/24 05:34:40;;;;;;;3.25;1.52;;;;;;;13.41;100.00;98711.63;5065583;28;20028;-92
2022/05/24 05:37:30;;;;;;;4.00;1.98;;;;;;;13.43;100.00;98707.16;5068855;28;20036;-92
2022/05/24 05:40:15;;;;;;;3.00;1.58;;;;;;;13.30;100.00;98696.44;5081683;28;20081;-91
2022/05/24 05:43:00;;;;;;;4.60;1.50;;;;;;;13.49;100.00;98719.13;5069556;28;20039;-91
2022/05/24 05:45:54;;;;;;;4.70;1.98;;;;;;;13.44;100.00;98710.63;5071619;28;20036;-92
2022/05/24 05:48:39;;;;;;;3.95;2.55;;;;;;;13.67;100.00;98706.72;5078833;28;20036;-91
2022/05/24 05:51:23;;;;;;;4.18;1.75;;;;;;;13.70;100.00;98702.16;5067473;28;20039;-92
2022/05/24 05:54:08;;;;;;;3.65;1.92;;;;;;;14.05;100.00;98699.34;5082883;28;20052;-92
2022/05/24 05:56:53;;;;;;;4.00;1.75;;;;;;;14.26;100.00;98698.09;5067670;28;20044;-92
2022/05/24 05:59:37;;;;;;;3.20;1.80;;;;;;;14.22;100.00;98707.09;5083126;28;20683;-92
2022/05/24 06:02:22;;;;;;;5.55;2.42;;;;;;;14.35;100.00;98709.88;5070255;28;20466;-91
2022/05/24 06:05:08;;;;;;;7.72;2.35;;;;;;;14.25;100.00;98691.13;5084723;28;20040;-91
2022/05/24 06:07:53;;;;;;;3.20;1.83;;;;;;;14.24;100.00;98692.09;5079647;28;20533;-92
2022/05/24 06:10:38;;;;;;;4.22;1.70;;;;;;;14.29;100.00;98690.97;5081812;28;20444;-92
2022/05/24 06:13:22;;;;;;;3.42;1.58;;;;;;;14.60;100.00;98700.59;5071741;28;20406;-92
2022/05/24 06:16:07;;;;;;;3.65;1.65;;;;;;;14.67;100.00;98697.50;5087375;28;20040;-92
2022/05/24 06:18:51;;;;;;;4.82;2.20;;;;;;;14.33;100.00;98717.06;5069924;28;20051;-91
2022/05/24 06:21:36;;;;;;;3.40;1.88;;;;;;;14.42;100.00;98716.50;5079668;28;20047;-92
2022/05/24 06:24:20;;;;;;;4.20;1.80;;;;;;;14.81;100.00;98735.38;5074296;28;20031;-91
2022/05/24 06:27:05;;;;;;;3.78;2.28;;;;;;;14.91;100.00;98729.44;5071206;28;20043;-92
2022/05/24 06:29:49;;;;;;;4.45;2.42;;;;;;;15.06;100.00;98734.75;5083092;28;20040;-89
2022/05/24 06:32:34;;;;;;;2.67;1.80;;;;;;;15.17;100.00;98733.16;5062937;28;20040;-90
2022/05/24 06:35:20;;;;;;;6.75;2.38;;;;;;;15.45;100.00;98741.19;5071919;28;20040;-89
2022/05/24 06:38:06;;;;;;;6.60;2.83;;;;;;;15.07;100.00;98731.16;5065793;28;20036;-89
2022/05/24 06:40:50;;;;;;;6.10;2.50;;;;;;;15.20;100.00;98732.97;5089787;28;20036;-90
2022/05/24 06:43:35;;;;;;;6.72;3.05;;;;;;;15.26;100.00;98744.09;5069474;28;20040;-89
2022/05/24 06:46:19;;;;;;;5.70;2.70;;;;;;;15.10;100.00;98744.16;5071851;28;20032;-90
2022/05/24 06:49:04;;;;;;;3.55;2.35;;;;;;;15.03;100.00;98727.88;5069645;28;20048;-89
2022/05/24 06:51:48;;;;;;;5.03;2.28;;;;;;;15.56;100.00;98736.06;5070596;28;20454;-89
2022/05/24 06:54:33;;;;;;;4.70;2.72;;;;;;;16.01;100.00;98732.34;5095231;28;20043;-89
2022/05/24 06:57:17;;;;;;;8.07;2.38;;;;;;;16.24;94.55;98733.50;5070036;28;20031;-90
2022/05/24 07:03:12;;;;;;;3.63;1.98;;;;;;;16.66;91.08;98742.19;5084714;28;20059;-89
2022/05/24 07:05:58;;;;;;;3.65;2.47;;;;;;;16.73;87.62;98729.41;5092629;28;20491;-90
2022/05/24 07:08:47;;;;;;;9.02;2.92;;;;;;;16.46;91.33;98740.88;5081573;28;20440;-90
2022/05/24 07:11:31;;;;;;;6.90;2.30;;;;;;;16.65;91.70;98719.34;5069225;28;20093;-89
2022/05/24 07:14:15;;;;;;;5.63;2.58;;;;;;;17.21;86.94;98719.13;5070916;28;20032;-89
2022/05/24 07:17:00;;;;;;;5.18;2.63;;;;;;;17.32;85.88;98721.00;5069225;28;20031;-90
2022/05/24 07:19:46;;;;;;;4.63;2.40;;;;;;;18.16;82.84;98718.50;5070219;28;20096;-90
2022/05/24 07:22:31;;;;;;;4.75;2.30;;;;;;;18.67;79.44;98722.69;5073344;28;20031;-90
2022/05/24 07:25:16;;;;;;;4.63;2.67;;;;;;;18.59;80.10;98736.53;5072337;28;20059;-90
2022/05/24 07:28:02;;;;;;;4.47;2.58;;;;;;;18.07;81.27;98734.22;5078756;28;20043;-89
2022/05/24 07:30:47;;;;;;;4.47;2.35;;;;;;;18.15;82.92;98743.31;5076095;28;20397;-89
2022/05/24 07:33:32;;;;;;;5.55;2.50;;;;;;;18.13;82.03;98741.72;5075606;28;20040;-89
2022/05/24 07:36:16;;;;;;;4.85;2.33;;;;;;;18.38;82.79;98735.47;5068748;28;20371;-89
2022/05/24 07:39:01;;;;;;;2.90;1.80;;;;;;;18.25;81.35;98738.19;5074804;28;20035;-89
2022/05/24 07:47:54;;;;;;;4.60;2.05;;;;;;;17.99;80.45;98740.91;5055067;28;20056;-89
2022/05/24 07:50:39;;;;;;;4.63;1.95;;;;;;;18.67;81.55;98736.78;5076167;28;20042;-90
2022/05/24 07:53:23;;;;;;;3.00;2.17;;;;;;;18.45;80.22;98737.53;5073362;28;20053;-89
2022/05/24 07:56:08;;;;;;;4.80;3.05;;;;;;;18.83;80.85;98735.69;5072936;28;20495;-89
2022/05/24 07:58:54;;;;;;;3.88;2.20;;;;;;;18.78;78.98;98740.47;5088594;28;20165;-89
2022/05/24 08:01:40;;;;;;;3.03;1.77;;;;;;;19.25;79.00;98736.00;5069201;28;20044;-89
2022/05/24 08:04:24;;;;;;;4.45;2.50;;;;;;;19.37;77.06;98733.25;5070964;28;20085;-91
2022/05/24 08:07:10;;;;;;;4.45;2.25;;;;;;;19.15;76.83;98734.06;5083859;28;20036;-92
2022/05/24 08:09:54;;;;;;;6.18;2.15;;;;;;;18.88;80.48;98729.06;5072353;28;20046;-91
2022/05/24 08:12:39;;;;;;;5.05;2.20;;;;;;;19.39;78.12;98727.78;5072332;28;20039;-91
2022/05/24 08:15:25;;;;;;;4.57;2.28;;;;;;;19.79;75.32;98746.78;5069380;28;20119;-91
2022/05/24 08:18:09;;;;;;;5.32;2.33;;;;;;;20.28;71.01;98724.22;5074201;28;20065;-91
2022/05/24 08:20:54;;;;;;;3.40;2.25;;;;;;;20.00;73.73;98719.44;5082194;28;20044;-89
2022/05/24 08:23:39;;;;;;;3.10;1.90;;;;;;;20.17;73.49;98734.84;5072943;28;20040;-90
2022/05/24 08:26:23;;;;;;;5.93;2.50;;;;;;;19.93;75.55;98729.72;5073067;28;20526;-89
2022/05/24 08:29:08;;;;;;;3.88;1.92;;;;;;;20.57;71.15;98712.13;5088332;28;20729;-90
2022/05/24 08:31:52;;;;;;;4.03;2.25;;;;;;;21.50;68.12;98719.31;5085583;28;20036;-89
2022/05/24 08:34:38;;;;;;;7.20;2.25;;;;;;;21.72;67.69;98700.47;5074498;28;20039;-89
2022/05/24 08:37:22;;;;;;;6.30;1.98;;;;;;;21.76;67.88;98709.88;5085337;28;20066;-89
2022/05/24 08:40:08;;;;;;;5.72;2.35;;;;;;;22.05;64.05;98706.44;5073581;28;20039;-89
2022/05/24 08:43:11;;;;;;;4.50;2.38;;;;;;;21.99;67.02;98720.31;5085829;28;20383;-89
2022/05/24 08:49:21;;;;;;;7.53;2.55;;;;;;;21.45;66.55;98725.91;5087480;28;20031;-88
2022/05/24 08:52:07;;;;;;;4.05;2.55;;;;;;;21.57;67.84;98729.31;5085899;28;20040;-89
2022/05/24 08:54:53;;;;;;;8.30;2.65;;;;;;;22.73;63.89;98719.84;5072435;28;20486;-89
2022/05/24 08:57:42;;;;;;;4.28;2.15;;;;;;;23.66;65.85;98716.41;5087140;28;20043;-90
2022/05/24 09:00:39;;;;;;;5.68;2.55;;;;;;;24.01;64.43;98722.84;5079383;28;20036;-89
2022/05/24 09:03:25;;;;;;;3.13;2.10;;;;;;;24.01;62.40;98712.16;5078460;28;20035;-88
2022/05/24 09:06:24;;;;;;;3.05;1.85;;;;;;;25.03;58.79;98709.09;5081511;28;20040;-90
2022/05/24 09:09:53;;;;;;;3.28;1.83;;;;;;;24.20;60.34;98721.88;5073830;28;20044;-90
2022/05/24 09:12:55;;;;;;;6.53;2.40;;;;;;;24.51;59.92;98719.72;5071674;28;20173;-90
2022/05/24 09:15:51;;;;;;;3.80;2.00;;;;;;;24.81;58.75;98720.31;5072970;28;20036;-89
2022/05/24 09:19:00;;;;;;;4.40;1.95;;;;;;;25.13;58.75;98725.94;5074760;28;20040;-90
2022/05/24 09:21:47;;;;;;;2.53;1.70;;;;;;;25.73;55.56;98714.34;5074522;28;20467;-90
2022/05/24 09:24:49;;;;;;;3.03;1.60;;;;;;;24.10;59.69;98715.75;5072347;28;20059;-89
2022/05/24 09:27:50;;;;;;;2.58;1.50;;;;;;;24.74;59.21;98716.56;5093121;28;20073;-90
2022/05/24 09:30:41;;;;;;;8.45;2.10;;;;;;;24.95;59.09;98714.38;5087505;28;20035;-90
2022/05/24 09:33:31;;;;;;;2.92;1.90;;;;;;;23.64;60.17;98718.38;5072494;28;20093;-89
2022/05/24 09:36:35;;;;;;;3.15;1.63;;;;;;;24.66;59.49;98718.16;5069582;28;20428;-89
2022/05/24 09:39:24;;;;;;;4.95;1.92;;;;;;;25.27;59.31;98727.19;5084971;28;20028;-90
2022/05/24 09:42:22;;;;;;;9.30;2.13;;;;;;;24.67;58.61;98732.41;5070055;28;20046;-90
2022/05/24 09:45:06;;;;;;;3.53;1.60;;;;;;;25.57;57.74;98733.03;5072282;28;20040;-90
2022/05/24 09:47:57;;;;;;;3.40;1.65;;;;;;;25.98;57.78;98730.56;5064889;28;20098;-89
2022/05/24 09:50:51;;;;;;;2.90;1.77;;;;;;;25.50;54.88;98723.97;5071231;28;20089;-89
2022/05/24 09:53:47;;;;;;;5.78;1.75;;;;;;;26.43;53.32;98718.59;5086267;28;20040;-89
2022/05/24 09:56:33;;;;;;;3.35;1.42;;;;;;;26.69;53.86;98716.63;5075599;28;20036;-90
2022/05/24 09:59:26;;;;;;;5.38;1.90;;;;;;;26.21;55.00;98722.75;5087230;28;20051;-90
2022/05/24 10:02:29;;;;;;;3.63;1.55;;;;;;;27.13;56.04;98729.72;5083675;28;20036;-91
2022/05/24 10:05:21;;;;;;;4.60;1.67;;;;;;;25.16;56.89;98732.81;5072576;28;20559;-89
2022/05/24 10:08:14;;;;;;;2.65;1.45;;;;;;;24.41;59.94;98727.81;5070395;28;20466;-90
2022/05/24 10:10:58;;;;;;;3.92;1.88;;;;;;;24.87;62.18;98711.66;5086418;28;20031;-89
2022/05/24 10:13:49;;;;;;;1.75;1.00;;;;;;;25.24;61.78;98730.19;5085551;28;20489;-89
2022/05/24 10:16:44;;;;;;;4.30;1.17;;;;;;;25.18;59.20;98714.72;5078340;28;20042;-89
2022/05/24 10:19:47;;;;;;;3.70;1.10;;;;;;;24.42;63.10;98731.34;5071882;28;20047;-90
2022/05/24 10:22:58;;;;;;;3.20;1.02;;;;;;;25.32;60.56;98719.53;5069920;28;20964;-90
2022/05/24 10:26:04;;;;;;;4.00;1.50;;;;;;;25.36;58.80;98723.56;5089516;28;20040;-90
2022/05/24 10:29:03;;;;;;;2.28;1.35;;;;;;;25.12;60.56;98732.28;5090048;28;20039;-90
2022/05/24 10:31:58;;;;;;;3.45;0.95;;;;;;;25.62;58.75;98736.94;5075009;28;20051;-89
2022/05/24 10:38:32;;;;;;;4.63;1.15;;;;;;;26.33;57.10;98716.06;5084713;28;20032;-90
2022/05/24 10:41:29;;;;;;;3.03;1.70;;;;;;;26.74;56.94;98726.88;5074084;28;20406;-90
2022/05/24 10:44:29;;;;;;;2.50;1.55;;;;;;;26.53;55.83;98732.75;5068829;28;20394;-90
2022/05/24 10:47:47;;;;;;;5.20;1.17;;;;;;;27.10;55.29;98721.13;5071579;28;20497;-90
2022/05/24 10:50:39;;;;;;;4.82;1.67;;;;;;;26.62;54.51;98725.50;5048791;28;20059;-90
2022/05/24 10:53:34;;;;;;;;;;;;;;;25.95;59.17;98739.78;5085268;28;20044;-90
2022/05/24 10:56:44;;;;;;;3.92;1.20;;;;;;;25.87;56.38;98739.75;5077378;28;19920;-90
2022/05/24 10:59:44;;;;;;;2.97;1.13;;;;;;;25.80;59.50;98738.66;5091822;28;20039;-90
2022/05/24 11:02:47;;;;;;;3.90;1.80;;;;;;;24.67;61.28;98732.41;5077707;28;20470;-90
2022/05/24 11:05:43;;;;;;;3.67;1.23;;;;;;;24.69;63.20;98736.59;5062434;28;20047;-90
2022/05/24 11:08:43;;;;;;;2.95;1.65;;;;;;;24.50;64.79;98739.44;5066331;28;20035;-89
2022/05/24 11:11:50;;;;;;;4.22;1.13;;;;;;;24.95;63.08;98743.84;5081348;28;20040;-90
2022/05/24 11:14:42;;;;;;;4.95;1.00;;;;;;;25.20;62.36;98734.19;5089570;28;20036;-90
2022/05/24 11:17:26;;;;;;;2.92;1.23;;;;;;;24.70;64.61;98724.91;5089511;28;20047;-90
2022/05/24 11:20:12;;;;;;;2.25;0.90;;;;;;;25.12;62.24;98723.38;5088251;28;20060;-90
2022/05/24 11:23:07;;;;;;;3.33;1.23;;;;;;;25.59;60.21;98731.88;5089001;28;20797;-90
2022/05/24 11:26:08;;;;;;;3.88;1.00;;;;;;;25.62;59.02;98722.69;5072246;28;20040;-89
2022/05/24 11:29:10;;;;;;;2.73;0.70;;;;;;;26.18;58.87;98725.75;5090638;28;20040;-89
2022/05/24 11:32:08;;;;;;;3.95;1.45;;;;;;;25.08;61.81;98730.03;5086214;28;20044;-90
2022/05/24 11:35:01;;;;;;;4.43;1.13;;;;;;;24.68;62.63;98734.91;5074380;28;20457;-89
2022/05/24 11:37:51;;;;;;;2.80;1.35;;;;;;;25.07;62.35;98721.16;5076764;28;20031;-90
2022/05/24 11:40:39;;;;;;;2.85;1.05;;;;;;;24.59;62.41;98738.50;5073622;28;20123;-90
2022/05/24 11:43:36;;;;;;;2.67;1.60;;;;;;;24.56;66.89;98740.66;5088694;28;20046;-90
2022/05/24 11:46:33;;;;;;;4.20;0.90;;;;;;;24.82;63.54;98738.88;5077910;28;20456;-90
2022/05/24 11:49:21;;;;;;;2.08;1.00;;;;;;;24.60;64.04;98742.03;5073748;28;20043;-90
2022/05/24 11:52:39;;;;;;;3.42;0.90;;;;;;;24.47;66.57;98740.59;5058881;28;20426;-90
2022/05/24 11:55:53;;;;;;;1.15;0.93;;;;;;;23.78;67.76;98741.97;5073483;28;20105;-90
2022/05/24 11:58:45;;;;;;;1.52;0.80;;;;;;;24.02;66.88;98737.91;5076096;28;20056;-89
2022/05/24 12:01:32;;;;;;;;;;;;;;;23.98;66.87;98747.19;5068592;28;20036;-89
2022/05/24 12:10:26;;;;;;;2.60;1.15;;;;;;;24.25;69.74;98744.50;5088231;28;20039;-90
2022/05/24 12:13:17;;;;;;;2.08;1.08;;;;;;;24.37;68.13;98737.09;5085335;28;20050;-90
2022/05/24 12:16:07;;;;;;;2.83;1.00;;;;;;;24.65;66.63;98718.31;5078170;28;20038;-90
2022/05/24 12:18:59;;;;;;;2.05;1.00;;;;;;;24.86;69.79;98729.56;5090610;28;20043;-89
2022/05/24 12:21:50;;;;;;;3.00;1.27;;;;;;;24.14;68.51;98738.53;5072678;28;20043;-90
2022/05/24 12:24:40;;;;;;;2.50;1.13;;;;;;;24.14;69.85;98735.84;5087858;28;20490;-90
2022/05/24 12:27:41;;;;;;;2.92;1.27;;;;;;;24.00;70.48;98737.22;5071823;28;20088;-90
2022/05/24 12:30:29;;;;;;;2.05;1.00;;;;;;;23.52;71.60;98751.59;5078224;28;20044;-90
2022/05/24 12:33:18;;;;;;;3.25;1.10;;;;;;;23.42;71.89;98748.13;5070955;28;20036;-90
2022/05/24 12:36:05;;;;;;;3.05;1.15;;;;;;;23.60;74.54;98743.72;5091035;28;20036;-90
2022/05/24 12:38:58;;;;;;;3.40;1.33;;;;;;;23.62;72.39;98735.53;5074414;28;20081;-90
2022/05/24 12:41:44;;;;;;;5.85;1.40;;;;;;;23.78;77.74;98738.44;5070858;28;20047;-90
2022/05/24 12:44:39;;;;;;;5.88;1.13;;;;;;;24.73;82.61;98737.13;5086680;28;20035;-90
2022/05/24 12:47:24;;;;;;;2.92;1.20;;;;;;;25.03;75.86;98730.53;5073558;28;20036;-91
2022/05/24 12:50:22;;;;;;;4.95;2.00;;;;;;;24.93;73.58;98721.75;5075663;28;20060;-91
2022/05/24 12:53:10;;;;;;;5.95;1.60;;;;;;;24.45;74.08;98733.72;5075984;28;20047;-90
2022/05/24 12:56:02;;;;;;;4.38;2.10;;;;;;;25.12;70.65;98729.63;5082250;28;20436;-90
2022/05/24 12:58:50;;;;;;;6.55;3.00;;;;;;;24.94;72.95;98723.41;5082560;28;20036;-90
2022/05/24 13:01:41;;;;;;;7.93;3.50;;;;;;;24.89;70.03;98715.00;5075620;28;20031;-90
2022/05/24 13:04:27;;;;;;;12.07;4.68;;;;;;;24.72;69.70;98716.72;5073178;28;20039;-90
2022/05/24 13:07:31;;;;;;;5.63;2.28;;;;;;;24.89;72.69;98725.72;5069977;28;20090;-91
2022/05/24 13:10:18;;;;;;;2.42;1.00;;;;;;;25.05;66.98;98722.31;5072975;28;20054;-90
2022/05/24 13:13:14;;;;;;;1.90;0.90;;;;;;;25.60;67.12;98705.91;5082215;28;20040;-90
2022/05/24 13:16:04;;;;;;;4.45;1.30;;;;;;;25.55;67.78;98716.28;5083700;28;20135;-90
2022/05/24 13:18:49;;;;;;;4.68;1.02;;;;;;;26.23;63.78;98721.59;5070215;28;20470;-90
2022/05/24 13:21:35;;;;;;;1.88;0.93;;;;;;;26.42;62.00;98719.59;5091757;28;20035;-90
2022/05/24 13:24:19;;;;;;;1.33;0.73;;;;;;;26.62;61.27;98720.13;5076888;28;20032;-90
2022/05/24 13:27:06;;;;;;;1.85;0.82;;;;;;;26.55;60.69;98722.66;5073587;28;20461;-90
2022/05/24 13:36:31;;;;;;;4.35;3.10;;;;;;;24.69;67.30;98725.88;5084320;28;20054;-90
2022/05/24 13:39:18;;;;;;;3.70;1.27;;;;;;;24.75;68.55;98716.41;5076854;28;20375;-90
2022/05/24 13:42:16;;;;;;;1.80;1.13;;;;;;;24.68;69.67;98700.13;5071963;28;21552;-90
2022/05/24 13:45:14;;;;;;;2.25;1.48;;;;;;;24.20;69.50;98720.03;5070515;28;20032;-90
2022/05/24 13:48:01;;;;;;;3.20;1.35;;;;;;;23.97;73.44;98724.13;5071679;28;20032;-90
2022/05/24 13:50:45;;;;;;;2.25;1.00;;;;;;;24.27;70.54;98712.25;5089782;28;20403;-90
2022/05/24 13:53:39;;;;;;;2.22;1.00;;;;;;;24.08;68.22;98728.44;5085107;28;20044;-90